Rising Sun, Illinois
Current Conditions -  °F | °C
As of 7:55 AM on Monday 24 Nov 2014 (Local Time) from KCUL Reporting Station
Overcast Overcast  
Wind Chill: 34°   Ceiling: 1700
Heat Index: 43°   Visibility: 10mi
Dew Point: 39°   Wind: 20mph
Humidity: 86%   Direction: 260°W
Pressure: 29.58"   Gusts: 29mph
Location:  38.0491°N, 88.1124°W
Report Text: KCUL 241355Z AUTO 26017G25KT 10SM BKN017 BKN023 OVC033 06/04 A2958 RMK AO2 T00610040
Loading
Personal Weather Stations






























Interactive Weather Map New forecast layout! Learn more

10-Day Weather Forecast

Advertisements
Track Severe Weather on mobile